sensor_id;sensor_type;location;lat;lon;timestamp;temperature;humidity
42135;DHT22;28312;43.460;11.810;2022-09-20T00:02:42;14.70;62.80
42135;DHT22;28312;43.460;11.810;2022-09-20T00:06:46;14.70;62.80
42135;DHT22;28312;43.460;11.810;2022-09-20T00:10:50;14.60;62.90
42135;DHT22;28312;43.460;11.810;2022-09-20T00:14:53;14.60;62.90
42135;DHT22;28312;43.460;11.810;2022-09-20T00:18:59;14.50;62.90
42135;DHT22;28312;43.460;11.810;2022-09-20T00:23:03;14.50;62.80
42135;DHT22;28312;43.460;11.810;2022-09-20T00:27:07;14.40;62.80
42135;DHT22;28312;43.460;11.810;2022-09-20T00:31:10;14.30;62.90
42135;DHT22;28312;43.460;11.810;2022-09-20T00:35:14;14.20;62.90
42135;DHT22;28312;43.460;11.810;2022-09-20T00:39:18;14.10;63.00
42135;DHT22;28312;43.460;11.810;2022-09-20T00:43:39;14.00;62.90
42135;DHT22;28312;43.460;11.810;2022-09-20T00:47:46;13.80;62.90
42135;DHT22;28312;43.460;11.810;2022-09-20T00:52:00;13.60;63.00
42135;DHT22;28312;43.460;11.810;2022-09-20T00:56:15;13.30;63.30
42135;DHT22;28312;43.460;11.810;2022-09-20T01:00:19;13.20;63.10
42135;DHT22;28312;43.460;11.810;2022-09-20T01:04:25;13.00;63.40
42135;DHT22;28312;43.460;11.810;2022-09-20T01:08:31;12.90;63.40
42135;DHT22;28312;43.460;11.810;2022-09-20T01:12:36;12.70;63.60
42135;DHT22;28312;43.460;11.810;2022-09-20T01:16:42;12.70;63.60
42135;DHT22;28312;43.460;11.810;2022-09-20T01:20:47;12.60;63.60
42135;DHT22;28312;43.460;11.810;2022-09-20T01:25:17;12.40;63.70
42135;DHT22;28312;43.460;11.810;2022-09-20T01:29:46;12.20;64.00
42135;DHT22;28312;43.460;11.810;2022-09-20T01:34:06;12.10;64.30
42135;DHT22;28312;43.460;11.810;2022-09-20T01:42:43;11.90;64.30
42135;DHT22;28312;43.460;11.810;2022-09-20T01:46:58;11.80;64.40
42135;DHT22;28312;43.460;11.810;2022-09-20T01:51:28;11.70;64.30
42135;DHT22;28312;43.460;11.810;2022-09-20T02:00:24;11.40;64.40
42135;DHT22;28312;43.460;11.810;2022-09-20T02:05:09;11.30;64.30
42135;DHT22;28312;43.460;11.810;2022-09-20T02:18:33;11.00;64.60
42135;DHT22;28312;43.460;11.810;2022-09-20T02:22:42;10.90;64.60
42135;DHT22;28312;43.460;11.810;2022-09-20T02:44:39;10.40;64.80
42135;DHT22;28312;43.460;11.810;2022-09-20T02:57:54;10.20;65.00
42135;DHT22;28312;43.460;11.810;2022-09-20T03:02:22;10.10;65.00
42135;DHT22;28312;43.460;11.810;2022-09-20T03:07:02;10.00;65.10
42135;DHT22;28312;43.460;11.810;2022-09-20T03:12:13;9.90;65.00
42135;DHT22;28312;43.460;11.810;2022-09-20T03:42:24;9.30;65.20
42135;DHT22;28312;43.460;11.810;2022-09-20T03:46:43;9.20;65.30
42135;DHT22;28312;43.460;11.810;2022-09-20T03:55:51;9.10;65.30
42135;DHT22;28312;43.460;11.810;2022-09-20T04:05:56;8.80;65.60
42135;DHT22;28312;43.460;11.810;2022-09-20T04:10:17;8.70;65.70
42135;DHT22;28312;43.460;11.810;2022-09-20T04:15:15;8.70;65.80
42135;DHT22;28312;43.460;11.810;2022-09-20T04:19:33;8.60;65.80
42135;DHT22;28312;43.460;11.810;2022-09-20T04:24:04;8.50;65.80
42135;DHT22;28312;43.460;11.810;2022-09-20T04:28:17;8.40;65.90
42135;DHT22;28312;43.460;11.810;2022-09-20T04:36:52;8.20;66.10
42135;DHT22;28312;43.460;11.810;2022-09-20T04:58:36;8.10;66.00
42135;DHT22;28312;43.460;11.810;2022-09-20T05:25:35;8.20;66.50
42135;DHT22;28312;43.460;11.810;2022-09-20T05:43:10;9.30;66.20
42135;DHT22;28312;43.460;11.810;2022-09-20T05:51:58;9.70;66.10
42135;DHT22;28312;43.460;11.810;2022-09-20T06:00:46;10.00;66.30
42135;DHT22;28312;43.460;11.810;2022-09-20T06:09:41;10.50;66.30
42135;DHT22;28312;43.460;11.810;2022-09-20T06:18:40;11.10;66.50
42135;DHT22;28312;43.460;11.810;2022-09-20T06:22:51;11.40;66.30
42135;DHT22;28312;43.460;11.810;2022-09-20T06:27:00;11.80;66.20
42135;DHT22;28312;43.460;11.810;2022-09-20T06:31:05;12.10;66.10
42135;DHT22;28312;43.460;11.810;2022-09-20T06:35:11;12.50;66.00
42135;DHT22;28312;43.460;11.810;2022-09-20T06:43:43;13.20;65.50
42135;DHT22;28312;43.460;11.810;2022-09-20T06:47:47;13.50;65.30
42135;DHT22;28312;43.460;11.810;2022-09-20T06:51:50;13.70;65.30
42135;DHT22;28312;43.460;11.810;2022-09-20T06:55:54;14.00;65.30
42135;DHT22;28312;43.460;11.810;2022-09-20T06:59:59;14.20;65.20
42135;DHT22;28312;43.460;11.810;2022-09-20T07:04:03;14.70;64.70
42135;DHT22;28312;43.460;11.810;2022-09-20T07:08:08;15.10;64.30
42135;DHT22;28312;43.460;11.810;2022-09-20T07:12:12;15.40;64.10
42135;DHT22;28312;43.460;11.810;2022-09-20T07:16:15;15.70;63.90
42135;DHT22;28312;43.460;11.810;2022-09-20T07:20:19;16.00;63.80
42135;DHT22;28312;43.460;11.810;2022-09-20T07:24:23;16.30;63.70
42135;DHT22;28312;43.460;11.810;2022-09-20T07:28:28;16.60;63.60
42135;DHT22;28312;43.460;11.810;2022-09-20T07:32:35;17.10;63.20
42135;DHT22;28312;43.460;11.810;2022-09-20T07:36:38;17.60;62.80
42135;DHT22;28312;43.460;11.810;2022-09-20T07:40:44;17.90;62.60
42135;DHT22;28312;43.460;11.810;2022-09-20T07:44:51;18.30;62.50
42135;DHT22;28312;43.460;11.810;2022-09-20T07:48:55;18.60;62.40
42135;DHT22;28312;43.460;11.810;2022-09-20T07:52:59;18.80;62.20
42135;DHT22;28312;43.460;11.810;2022-09-20T07:57:03;19.00;62.10
42135;DHT22;28312;43.460;11.810;2022-09-20T08:01:10;19.20;62.00
42135;DHT22;28312;43.460;11.810;2022-09-20T08:05:14;19.50;61.90
42135;DHT22;28312;43.460;11.810;2022-09-20T08:09:18;19.70;61.80
42135;DHT22;28312;43.460;11.810;2022-09-20T08:13:21;19.90;61.70
42135;DHT22;28312;43.460;11.810;2022-09-20T08:17:47;20.20;61.70
42135;DHT22;28312;43.460;11.810;2022-09-20T08:21:51;20.60;61.60
42135;DHT22;28312;43.460;11.810;2022-09-20T08:25:58;20.90;61.30
42135;DHT22;28312;43.460;11.810;2022-09-20T08:30:02;21.20;60.90
42135;DHT22;28312;43.460;11.810;2022-09-20T08:34:07;21.60;60.50
42135;DHT22;28312;43.460;11.810;2022-09-20T08:38:12;21.80;60.00
42135;DHT22;28312;43.460;11.810;2022-09-20T08:42:36;21.90;60.10
42135;DHT22;28312;43.460;11.810;2022-09-20T08:46:51;22.10;59.80
42135;DHT22;28312;43.460;11.810;2022-09-20T08:50:59;22.30;59.60
42135;DHT22;28312;43.460;11.810;2022-09-20T08:55:21;22.50;59.30
42135;DHT22;28312;43.460;11.810;2022-09-20T08:59:26;22.80;59.40
42135;DHT22;28312;43.460;11.810;2022-09-20T09:03:31;23.10;58.80
42135;DHT22;28312;43.460;11.810;2022-09-20T09:07:35;23.40;59.00
42135;DHT22;28312;43.460;11.810;2022-09-20T09:11:40;23.90;58.60
42135;DHT22;28312;43.460;11.810;2022-09-20T09:15:53;24.30;57.60
42135;DHT22;28312;43.460;11.810;2022-09-20T09:20:19;24.70;57.50
42135;DHT22;28312;43.460;11.810;2022-09-20T09:24:27;25.10;56.10
42135;DHT22;28312;43.460;11.810;2022-09-20T09:28:31;25.20;54.70
42135;DHT22;28312;43.460;11.810;2022-09-20T09:32:39;25.30;54.90
42135;DHT22;28312;43.460;11.810;2022-09-20T09:36:43;25.60;54.40
42135;DHT22;28312;43.460;11.810;2022-09-20T09:40:59;25.70;53.40
42135;DHT22;28312;43.460;11.810;2022-09-20T09:45:22;25.90;52.80
42135;DHT22;28312;43.460;11.810;2022-09-20T09:49:31;26.10;52.10
42135;DHT22;28312;43.460;11.810;2022-09-20T09:53:38;26.40;52.30
42135;DHT22;28312;43.460;11.810;2022-09-20T09:57:45;26.80;50.90
42135;DHT22;28312;43.460;11.810;2022-09-20T10:06:18;27.40;50.30
42135;DHT22;28312;43.460;11.810;2022-09-20T10:10:59;27.80;49.70
42135;DHT22;28312;43.460;11.810;2022-09-20T10:29:25;29.30;46.60
42135;DHT22;28312;43.460;11.810;2022-09-20T10:42:36;29.20;45.50
42135;DHT22;28312;43.460;11.810;2022-09-20T10:47:15;29.50;45.20
42135;DHT22;28312;43.460;11.810;2022-09-20T10:56:02;30.10;44.40
42135;DHT22;28312;43.460;11.810;2022-09-20T11:00:18;30.00;44.40
42135;DHT22;28312;43.460;11.810;2022-09-20T11:04:45;30.20;44.40
42135;DHT22;28312;43.460;11.810;2022-09-20T11:08:53;30.50;44.50
42135;DHT22;28312;43.460;11.810;2022-09-20T11:13:02;30.60;43.60
42135;DHT22;28312;43.460;11.810;2022-09-20T11:21:30;30.70;43.40
42135;DHT22;28312;43.460;11.810;2022-09-20T11:25:51;30.90;43.20
42135;DHT22;28312;43.460;11.810;2022-09-20T11:30:05;31.20;43.50
42135;DHT22;28312;43.460;11.810;2022-09-20T11:34:18;31.30;43.50
42135;DHT22;28312;43.460;11.810;2022-09-20T11:38:47;31.30;42.70
42135;DHT22;28312;43.460;11.810;2022-09-20T11:42:58;31.00;42.70
42135;DHT22;28312;43.460;11.810;2022-09-20T11:47:15;31.00;42.60
42135;DHT22;28312;43.460;11.810;2022-09-20T11:52:08;30.90;42.40
42135;DHT22;28312;43.460;11.810;2022-09-20T11:56:22;31.00;42.80
42135;DHT22;28312;43.460;11.810;2022-09-20T12:00:32;31.00;41.90
42135;DHT22;28312;43.460;11.810;2022-09-20T12:04:37;30.80;41.70
42135;DHT22;28312;43.460;11.810;2022-09-20T12:08:49;30.70;42.20
42135;DHT22;28312;43.460;11.810;2022-09-20T12:13:00;30.80;41.70
42135;DHT22;28312;43.460;11.810;2022-09-20T12:17:09;30.70;41.30
42135;DHT22;28312;43.460;11.810;2022-09-20T12:21:29;30.60;41.50
42135;DHT22;28312;43.460;11.810;2022-09-20T12:25:38;30.40;41.10
42135;DHT22;28312;43.460;11.810;2022-09-20T12:42:31;30.00;40.70
42135;DHT22;28312;43.460;11.810;2022-09-20T12:46:41;29.90;40.60
42135;DHT22;28312;43.460;11.810;2022-09-20T12:51:03;29.80;40.40
42135;DHT22;28312;43.460;11.810;2022-09-20T12:59:34;30.10;40.20
42135;DHT22;28312;43.460;11.810;2022-09-20T13:03:42;30.30;38.70
42135;DHT22;28312;43.460;11.810;2022-09-20T13:07:52;30.10;38.80
42135;DHT22;28312;43.460;11.810;2022-09-20T13:12:00;30.10;39.20
42135;DHT22;28312;43.460;11.810;2022-09-20T13:16:05;30.20;39.00
42135;DHT22;28312;43.460;11.810;2022-09-20T13:20:22;30.30;38.60
42135;DHT22;28312;43.460;11.810;2022-09-20T13:24:37;30.40;38.70
42135;DHT22;28312;43.460;11.810;2022-09-20T13:28:53;30.40;37.60
42135;DHT22;28312;43.460;11.810;2022-09-20T13:33:22;30.20;37.70
42135;DHT22;28312;43.460;11.810;2022-09-20T13:37:25;30.10;37.20
42135;DHT22;28312;43.460;11.810;2022-09-20T13:41:29;30.00;36.30
42135;DHT22;28312;43.460;11.810;2022-09-20T13:45:35;29.70;36.50
42135;DHT22;28312;43.460;11.810;2022-09-20T13:49:42;29.80;36.90
42135;DHT22;28312;43.460;11.810;2022-09-20T13:53:46;30.00;37.40
42135;DHT22;28312;43.460;11.810;2022-09-20T13:57:51;30.20;36.90
42135;DHT22;28312;43.460;11.810;2022-09-20T14:01:55;30.20;37.00
42135;DHT22;28312;43.460;11.810;2022-09-20T14:06:06;30.20;37.40
42135;DHT22;28312;43.460;11.810;2022-09-20T14:10:34;30.40;37.20
42135;DHT22;28312;43.460;11.810;2022-09-20T14:14:39;30.20;36.30
42135;DHT22;28312;43.460;11.810;2022-09-20T14:18:44;29.90;35.90
42135;DHT22;28312;43.460;11.810;2022-09-20T14:22:50;29.60;35.90
42135;DHT22;28312;43.460;11.810;2022-09-20T14:27:36;29.60;36.30
42135;DHT22;28312;43.460;11.810;2022-09-20T14:31:42;29.70;36.30
42135;DHT22;28312;43.460;11.810;2022-09-20T14:35:51;29.70;36.50
42135;DHT22;28312;43.460;11.810;2022-09-20T14:39:57;29.80;36.60
42135;DHT22;28312;43.460;11.810;2022-09-20T14:44:03;30.00;36.50
42135;DHT22;28312;43.460;11.810;2022-09-20T14:56:38;29.90;36.60
42135;DHT22;28312;43.460;11.810;2022-09-20T15:04:57;29.40;36.10
42135;DHT22;28312;43.460;11.810;2022-09-20T15:09:02;28.80;36.50
42135;DHT22;28312;43.460;11.810;2022-09-20T15:13:09;28.60;37.20
42135;DHT22;28312;43.460;11.810;2022-09-20T15:17:16;28.60;37.30
42135;DHT22;28312;43.460;11.810;2022-09-20T15:21:20;28.60;37.20
42135;DHT22;28312;43.460;11.810;2022-09-20T15:25:29;28.60;37.20
42135;DHT22;28312;43.460;11.810;2022-09-20T15:29:33;28.40;36.70
42135;DHT22;28312;43.460;11.810;2022-09-20T15:33:36;27.90;37.20
42135;DHT22;28312;43.460;11.810;2022-09-20T15:37:41;27.80;37.40
42135;DHT22;28312;43.460;11.810;2022-09-20T15:41:44;27.70;37.40
42135;DHT22;28312;43.460;11.810;2022-09-20T15:45:54;27.60;37.50
42135;DHT22;28312;43.460;11.810;2022-09-20T15:49:58;27.40;37.60
42135;DHT22;28312;43.460;11.810;2022-09-20T15:54:03;27.20;37.40
42135;DHT22;28312;43.460;11.810;2022-09-20T15:58:12;27.10;37.60
42135;DHT22;28312;43.460;11.810;2022-09-20T16:02:17;26.80;37.80
42135;DHT22;28312;43.460;11.810;2022-09-20T16:06:22;26.70;37.80
42135;DHT22;28312;43.460;11.810;2022-09-20T16:10:26;26.50;37.80
42135;DHT22;28312;43.460;11.810;2022-09-20T16:14:30;26.30;38.10
42135;DHT22;28312;43.460;11.810;2022-09-20T16:18:35;26.10;38.20
42135;DHT22;28312;43.460;11.810;2022-09-20T16:22:57;25.80;38.20
42135;DHT22;28312;43.460;11.810;2022-09-20T16:27:03;25.60;38.40
42135;DHT22;28312;43.460;11.810;2022-09-20T16:35:42;25.00;38.60
42135;DHT22;28312;43.460;11.810;2022-09-20T16:39:45;24.70;38.70
42135;DHT22;28312;43.460;11.810;2022-09-20T16:43:49;24.40;39.00
42135;DHT22;28312;43.460;11.810;2022-09-20T16:47:54;24.20;39.30
42135;DHT22;28312;43.460;11.810;2022-09-20T16:52:00;23.90;39.50
42135;DHT22;28312;43.460;11.810;2022-09-20T16:56:04;23.60;39.40
42135;DHT22;28312;43.460;11.810;2022-09-20T17:00:12;23.30;39.70
42135;DHT22;28312;43.460;11.810;2022-09-20T17:04:19;23.10;40.00
42135;DHT22;28312;43.460;11.810;2022-09-20T17:08:23;22.90;40.20
42135;DHT22;28312;43.460;11.810;2022-09-20T17:12:27;22.70;40.30
42135;DHT22;28312;43.460;11.810;2022-09-20T17:16:38;22.60;40.60
42135;DHT22;28312;43.460;11.810;2022-09-20T17:20:42;22.40;40.70
42135;DHT22;28312;43.460;11.810;2022-09-20T17:24:46;22.30;40.80
42135;DHT22;28312;43.460;11.810;2022-09-20T17:28:54;22.10;41.00
42135;DHT22;28312;43.460;11.810;2022-09-20T17:32:58;21.90;41.10
42135;DHT22;28312;43.460;11.810;2022-09-20T17:37:02;21.70;41.20
42135;DHT22;28312;43.460;11.810;2022-09-20T17:41:15;21.60;41.40
42135;DHT22;28312;43.460;11.810;2022-09-20T17:45:19;21.30;41.80
42135;DHT22;28312;43.460;11.810;2022-09-20T17:49:23;21.20;42.00
42135;DHT22;28312;43.460;11.810;2022-09-20T17:53:29;21.10;42.20
42135;DHT22;28312;43.460;11.810;2022-09-20T17:57:34;20.90;42.20
42135;DHT22;28312;43.460;11.810;2022-09-20T18:01:42;20.80;42.50
42135;DHT22;28312;43.460;11.810;2022-09-20T18:05:46;20.70;42.60
42135;DHT22;28312;43.460;11.810;2022-09-20T18:09:51;20.60;42.60
42135;DHT22;28312;43.460;11.810;2022-09-20T18:13:55;20.40;42.70
42135;DHT22;28312;43.460;11.810;2022-09-20T18:17:59;20.30;42.80
42135;DHT22;28312;43.460;11.810;2022-09-20T18:22:03;20.10;43.10
42135;DHT22;28312;43.460;11.810;2022-09-20T18:26:15;19.90;43.20
42135;DHT22;28312;43.460;11.810;2022-09-20T18:30:25;19.70;43.40
42135;DHT22;28312;43.460;11.810;2022-09-20T18:34:29;19.40;43.50
42135;DHT22;28312;43.460;11.810;2022-09-20T18:38:34;19.20;43.70
42135;DHT22;28312;43.460;11.810;2022-09-20T18:42:37;19.10;43.90
42135;DHT22;28312;43.460;11.810;2022-09-20T18:46:41;19.10;44.20
42135;DHT22;28312;43.460;11.810;2022-09-20T18:51:02;19.00;44.30
42135;DHT22;28312;43.460;11.810;2022-09-20T18:55:06;18.80;44.40
42135;DHT22;28312;43.460;11.810;2022-09-20T18:59:15;18.70;44.40
42135;DHT22;28312;43.460;11.810;2022-09-20T19:12:28;18.00;44.60
42135;DHT22;28312;43.460;11.810;2022-09-20T19:16:33;17.70;44.80
42135;DHT22;28312;43.460;11.810;2022-09-20T19:25:57;17.10;45.20
42135;DHT22;28312;43.460;11.810;2022-09-20T19:29:42;16.90;45.40
42135;DHT22;28312;43.460;11.810;2022-09-20T19:33:46;16.70;45.60
42135;DHT22;28312;43.460;11.810;2022-09-20T19:42:07;16.30;46.00
42135;DHT22;28312;43.460;11.810;2022-09-20T19:50:41;16.10;46.40
42135;DHT22;28312;43.460;11.810;2022-09-20T19:54:51;16.00;46.40
42135;DHT22;28312;43.460;11.810;2022-09-20T19:58:56;15.70;46.80
42135;DHT22;28312;43.460;11.810;2022-09-20T20:02:59;15.60;46.90
42135;DHT22;28312;43.460;11.810;2022-09-20T20:16:05;15.10;47.40
42135;DHT22;28312;43.460;11.810;2022-09-20T20:20:30;14.90;47.80
42135;DHT22;28312;43.460;11.810;2022-09-20T20:24:52;14.90;48.00
42135;DHT22;28312;43.460;11.810;2022-09-20T20:28:55;14.90;48.00
42135;DHT22;28312;43.460;11.810;2022-09-20T20:32:59;14.80;48.00
42135;DHT22;28312;43.460;11.810;2022-09-20T20:37:03;14.80;48.00
42135;DHT22;28312;43.460;11.810;2022-09-20T20:41:12;14.70;48.20
42135;DHT22;28312;43.460;11.810;2022-09-20T20:45:17;14.70;48.50
42135;DHT22;28312;43.460;11.810;2022-09-20T20:49:21;14.60;48.60
42135;DHT22;28312;43.460;11.810;2022-09-20T20:53:29;14.60;48.80
42135;DHT22;28312;43.460;11.810;2022-09-20T20:57:34;14.60;49.10
42135;DHT22;28312;43.460;11.810;2022-09-20T21:01:39;14.60;49.10
42135;DHT22;28312;43.460;11.810;2022-09-20T21:05:54;14.60;49.30
42135;DHT22;28312;43.460;11.810;2022-09-20T21:09:57;14.70;49.40
42135;DHT22;28312;43.460;11.810;2022-09-20T21:14:02;14.70;49.30
42135;DHT22;28312;43.460;11.810;2022-09-20T21:18:08;14.70;49.40
42135;DHT22;28312;43.460;11.810;2022-09-20T21:22:12;14.70;49.50
42135;DHT22;28312;43.460;11.810;2022-09-20T21:26:16;14.60;49.50
42135;DHT22;28312;43.460;11.810;2022-09-20T21:30:20;14.50;49.60
42135;DHT22;28312;43.460;11.810;2022-09-20T21:34:23;14.30;49.70
42135;DHT22;28312;43.460;11.810;2022-09-20T21:38:28;14.20;50.10
42135;DHT22;28312;43.460;11.810;2022-09-20T21:42:31;14.10;50.10
42135;DHT22;28312;43.460;11.810;2022-09-20T21:46:36;14.00;50.20
42135;DHT22;28312;43.460;11.810;2022-09-20T21:50:42;13.90;50.30
42135;DHT22;28312;43.460;11.810;2022-09-20T21:54:46;13.80;50.30
42135;DHT22;28312;43.460;11.810;2022-09-20T21:58:52;13.70;50.50
42135;DHT22;28312;43.460;11.810;2022-09-20T22:02:56;13.40;50.80
42135;DHT22;28312;43.460;11.810;2022-09-20T22:07:01;13.30;51.00
42135;DHT22;28312;43.460;11.810;2022-09-20T22:11:08;13.20;51.30
42135;DHT22;28312;43.460;11.810;2022-09-20T22:15:17;13.10;51.30
42135;DHT22;28312;43.460;11.810;2022-09-20T22:19:21;13.00;51.50
42135;DHT22;28312;43.460;11.810;2022-09-20T22:23:24;12.90;51.50
42135;DHT22;28312;43.460;11.810;2022-09-20T22:27:28;12.90;51.40
42135;DHT22;28312;43.460;11.810;2022-09-20T22:31:33;12.70;51.60
42135;DHT22;28312;43.460;11.810;2022-09-20T22:35:43;12.60;51.90
42135;DHT22;28312;43.460;11.810;2022-09-20T22:39:47;12.60;52.00
42135;DHT22;28312;43.460;11.810;2022-09-20T22:43:51;12.50;52.00
42135;DHT22;28312;43.460;11.810;2022-09-20T22:47:54;12.50;52.00
42135;DHT22;28312;43.460;11.810;2022-09-20T22:51:58;12.50;52.00
42135;DHT22;28312;43.460;11.810;2022-09-20T23:00:05;12.20;52.30
42135;DHT22;28312;43.460;11.810;2022-09-20T23:04:13;12.20;52.30
42135;DHT22;28312;43.460;11.810;2022-09-20T23:08:16;12.00;52.70
42135;DHT22;28312;43.460;11.810;2022-09-20T23:12:20;11.90;52.60
42135;DHT22;28312;43.460;11.810;2022-09-20T23:16:26;11.90;52.70
42135;DHT22;28312;43.460;11.810;2022-09-20T23:20:32;11.80;52.90
42135;DHT22;28312;43.460;11.810;2022-09-20T23:24:35;11.80;52.80
42135;DHT22;28312;43.460;11.810;2022-09-20T23:28:40;11.70;52.80
42135;DHT22;28312;43.460;11.810;2022-09-20T23:32:44;11.60;52.90
42135;DHT22;28312;43.460;11.810;2022-09-20T23:36:47;11.60;53.00
42135;DHT22;28312;43.460;11.810;2022-09-20T23:40:51;11.50;53.10
42135;DHT22;28312;43.460;11.810;2022-09-20T23:44:55;11.30;53.30
42135;DHT22;28312;43.460;11.810;2022-09-20T23:48:58;11.30;53.20
42135;DHT22;28312;43.460;11.810;2022-09-20T23:53:02;11.20;53.30
42135;DHT22;28312;43.460;11.810;2022-09-20T23:57:05;11.20;53.20
